createdAt,value
2022-08-04T00:00:47.591Z,102005.84
2022-08-04T00:03:22.875Z,101940.97
2022-08-04T00:05:59.075Z,101871.09
2022-08-04T00:08:47.307Z,101805.63
2022-08-04T00:11:19.127Z,101773.25
2022-08-04T00:14:00.430Z,101705.06
2022-08-04T00:16:38.377Z,101629.06
2022-08-04T00:19:13.187Z,101593.31
2022-08-04T00:21:46.039Z,101537.38
2022-08-04T00:24:15.913Z,101505.94
2022-08-04T00:26:46.294Z,101412.47
2022-08-04T00:29:17.385Z,101394.19
2022-08-04T00:31:54.784Z,101361.88
2022-08-04T00:34:28.539Z,101330.31
2022-08-04T00:36:59.795Z,101292.72
2022-08-04T00:39:29.957Z,101247.31
2022-08-04T00:42:21.198Z,101217.66
2022-08-04T00:45:01.570Z,101202.81
2022-08-04T00:47:44.999Z,101195.00
2022-08-04T00:50:22.132Z,101179.28
2022-08-04T00:53:05.126Z,101178.47
2022-08-04T00:55:56.817Z,101179.28
2022-08-04T00:58:32.830Z,101173.09
2022-08-04T01:01:04.778Z,101156.41
2022-08-04T01:03:50.432Z,101150.25
2022-08-04T01:06:38.658Z,101139.75
2022-08-04T01:09:30.042Z,101134.47
2022-08-04T01:12:24.788Z,101130.91
2022-08-04T01:15:05.707Z,101133.53
2022-08-04T01:17:48.941Z,101130.03
2022-08-04T01:20:24.522Z,101116.06
2022-08-04T01:23:26.283Z,101118.66
2022-08-04T01:26:43.881Z,101116.03
2022-08-04T01:29:15.884Z,101114.34
2022-08-04T01:31:53.863Z,101111.78
2022-08-04T01:34:25.202Z,101109.25
2022-08-04T01:37:02.257Z,101115.34
2022-08-04T01:39:43.527Z,101107.50
2022-08-04T01:42:32.028Z,101115.41
2022-08-04T01:45:07.183Z,101118.06
2022-08-04T01:47:38.982Z,101120.50
2022-08-04T01:50:10.255Z,101114.41
2022-08-04T01:52:41.700Z,101119.63
2022-08-04T01:55:12.966Z,101115.22
2022-08-04T01:57:46.276Z,101110.81
2022-08-04T02:00:19.982Z,101109.84
2022-08-04T02:02:49.889Z,101118.56
2022-08-04T02:05:21.689Z,101114.19
2022-08-04T02:08:05.249Z,101108.91
2022-08-04T02:10:49.842Z,101105.34
2022-08-04T02:13:25.883Z,101109.72
2022-08-04T02:16:05.143Z,101107.09
2022-08-04T02:18:36.429Z,101106.22
2022-08-04T02:21:06.609Z,101100.09
2022-08-04T02:23:39.605Z,101100.06
2022-08-04T02:26:19.373Z,101100.13
2022-08-04T02:28:57.257Z,101096.63
2022-08-04T02:31:33.802Z,101094.88
2022-08-04T02:34:09.726Z,101104.44
2022-08-04T02:36:40.909Z,101100.03
2022-08-04T02:39:12.096Z,101106.13
2022-08-04T02:41:42.769Z,101100.88
2022-08-04T02:44:12.970Z,101097.44
2022-08-04T02:46:45.353Z,101102.59
2022-08-04T02:49:14.838Z,101104.28
2022-08-04T02:51:46.535Z,101098.19
2022-08-04T02:54:22.397Z,101098.19
2022-08-04T02:57:07.972Z,101102.53
2022-08-04T02:59:48.090Z,101097.38
2022-08-04T03:02:27.643Z,101093.84
2022-08-04T03:05:00.918Z,101099.00
2022-08-04T03:08:07.476Z,101089.41
2022-08-04T03:11:00.357Z,101088.47
2022-08-04T03:14:12.060Z,101088.47
2022-08-04T03:17:03.914Z,101086.75
2022-08-04T03:20:14.105Z,101079.06
2022-08-04T03:23:12.619Z,101082.50
2022-08-04T03:26:25.721Z,101088.66
2022-08-04T03:29:36.083Z,101079.84
2022-08-04T03:32:37.764Z,101089.38
2022-08-04T03:35:22.523Z,101084.09
2022-08-04T03:38:14.894Z,101081.53
2022-08-04T03:41:00.409Z,101087.56
2022-08-04T03:43:57.888Z,101083.31
2022-08-04T03:46:58.133Z,101090.31
2022-08-04T03:49:50.643Z,101082.41
2022-08-04T03:52:57.045Z,101078.00
2022-08-04T03:55:44.407Z,101083.25
2022-08-04T03:58:43.206Z,101082.28
2022-08-04T04:01:20.568Z,101084.97
2022-08-04T04:04:18.293Z,101089.31
2022-08-04T04:07:14.320Z,101082.47
2022-08-04T04:10:10.507Z,101088.66
2022-08-04T04:12:59.595Z,101086.97
2022-08-04T04:15:39.639Z,101080.06
2022-08-04T04:18:34.397Z,101086.13
2022-08-04T04:21:30.502Z,101089.69
2022-08-04T04:24:22.727Z,101092.31
2022-08-04T04:27:00.169Z,101091.41
2022-08-04T04:29:49.525Z,101097.59
2022-08-04T04:32:26.782Z,101101.13
2022-08-04T04:35:11.125Z,101099.38
2022-08-04T04:38:12.854Z,101100.44
2022-08-04T04:40:52.186Z,101096.84
2022-08-04T04:43:52.593Z,101106.53
2022-08-04T04:46:31.126Z,101100.47
2022-08-04T04:49:06.432Z,101093.47
2022-08-04T04:51:40.761Z,101095.25
2022-08-04T04:54:17.067Z,101083.81
2022-08-04T04:56:50.037Z,101088.22
2022-08-04T04:59:25.435Z,101090.94
2022-08-04T05:02:17.922Z,101087.47
2022-08-04T05:05:06.365Z,101086.66
2022-08-04T05:08:43.471Z,101080.63
2022-08-04T05:11:14.250Z,101080.59
2022-08-04T05:14:36.107Z,101082.28
2022-08-04T05:16:43.470Z,101078.84
2022-08-04T05:19:22.826Z,101084.97
2022-08-04T05:21:55.774Z,101083.25
2022-08-04T05:24:26.834Z,101087.63
2022-08-04T05:26:59.012Z,101077.19
2022-08-04T05:29:32.031Z,101080.75
2022-08-04T05:32:06.807Z,101080.81
2022-08-04T05:34:42.641Z,101078.19
2022-08-04T05:37:13.963Z,101077.38
2022-08-04T05:39:53.306Z,101079.16
2022-08-04T05:42:23.529Z,101080.97
2022-08-04T05:44:53.281Z,101072.25
2022-08-04T05:47:25.476Z,101069.66
2022-08-04T05:50:01.443Z,101068.81
2022-08-04T05:52:33.727Z,101066.28
2022-08-04T05:55:03.744Z,101068.06
2022-08-04T05:57:33.647Z,101068.06
2022-08-04T06:00:19.734Z,101062.00
2022-08-04T06:02:59.048Z,101064.63
2022-08-04T06:05:28.904Z,101069.91
2022-08-04T06:08:12.469Z,101073.38
2022-08-04T06:10:43.794Z,101079.53
2022-08-04T06:13:48.455Z,101069.97
2022-08-04T06:16:05.192Z,101070.81
2022-08-04T06:19:59.025Z,101070.81
2022-08-04T06:21:31.179Z,101070.81
2022-08-04T06:24:04.540Z,101074.31
2022-08-04T06:26:36.816Z,101069.94
2022-08-04T06:29:11.128Z,101072.53
2022-08-04T06:32:28.476Z,101075.16
2022-08-04T06:34:39.123Z,101069.84
2022-08-04T06:37:09.528Z,101073.38
2022-08-04T06:39:39.145Z,101075.13
2022-08-04T06:42:21.908Z,101064.53
2022-08-04T06:44:54.842Z,101068.91
2022-08-04T06:47:24.906Z,101066.25
2022-08-04T06:51:30.428Z,101067.97
2022-08-04T06:52:48.774Z,101073.19
2022-08-04T06:55:18.347Z,101074.00
2022-08-04T06:57:48.578Z,101069.59
2022-08-04T07:00:20.238Z,101067.78
2022-08-04T07:02:53.543Z,101079.16
2022-08-04T07:05:26.179Z,101079.91
2022-08-04T07:07:57.375Z,101085.19
2022-08-04T07:10:28.461Z,101093.00
2022-08-04T07:12:58.984Z,101106.06
2022-08-04T07:15:29.063Z,101107.72
2022-08-04T07:18:01.963Z,101112.91
2022-08-04T07:20:36.831Z,101112.78
2022-08-04T07:23:07.283Z,101116.16
2022-08-04T07:25:59.692Z,101117.88
2022-08-04T07:28:28.006Z,101136.22
2022-08-04T07:30:59.424Z,101135.25
2022-08-04T07:33:29.345Z,101141.25
2022-08-04T07:36:09.203Z,101146.38
2022-08-04T07:38:46.434Z,101148.84
2022-08-04T07:41:39.312Z,101170.59
2022-08-04T07:44:10.539Z,101176.59
2022-08-04T07:46:40.424Z,101187.94
2022-08-04T07:49:10.384Z,101191.44
2022-08-04T07:51:42.801Z,101192.19
2022-08-04T07:54:12.514Z,101199.09
2022-08-04T07:56:43.750Z,101216.59
2022-08-04T07:59:13.226Z,101229.59
2022-08-04T08:01:43.342Z,101234.03
2022-08-04T08:04:13.877Z,101257.69
2022-08-04T08:06:46.205Z,101292.63
2022-08-04T08:09:18.081Z,101295.09
2022-08-04T08:12:38.167Z,101288.03
2022-08-04T08:14:39.495Z,101288.84
2022-08-04T08:17:10.295Z,101305.53
2022-08-04T08:19:39.902Z,101325.84
2022-08-04T08:22:14.250Z,101365.06
2022-08-04T08:24:43.824Z,101281.63
2022-08-04T08:27:13.521Z,100757.97
2022-08-04T08:29:43.226Z,100439.69
2022-08-04T08:32:15.359Z,100303.34
2022-08-04T08:34:45.703Z,100194.06
2022-08-04T08:37:21.802Z,100174.81
2022-08-04T08:39:57.069Z,100215.69
2022-08-04T08:42:54.561Z,100237.00
2022-08-04T08:45:50.154Z,100265.44
2022-08-04T08:48:41.808Z,100439.13
2022-08-04T08:51:53.647Z,100377.25
2022-08-04T08:54:47.319Z,100476.88
2022-08-04T08:57:25.299Z,100550.56
2022-08-04T09:00:05.424Z,100574.00
2022-08-04T09:03:09.295Z,100651.13
2022-08-04T09:06:01.426Z,100758.41
2022-08-04T09:08:47.117Z,100865.56
2022-08-04T09:11:23.331Z,100911.28
2022-08-04T09:13:57.915Z,100917.28
2022-08-04T09:16:32.216Z,100911.78
2022-08-04T09:19:07.098Z,100936.31
2022-08-04T09:21:40.412Z,100932.72
2022-08-04T09:24:35.188Z,100926.44
2022-08-04T09:27:11.235Z,100925.09
2022-08-04T09:29:49.169Z,100930.53
2022-08-04T09:32:26.543Z,100924.50
2022-08-04T09:35:06.097Z,100912.44
2022-08-04T09:37:46.692Z,100904.44
2022-08-04T09:40:29.329Z,100886.44
2022-08-04T09:43:14.824Z,100860.47
2022-08-04T09:45:51.643Z,100833.84
2022-08-04T09:48:28.097Z,100816.06
2022-08-04T09:51:01.822Z,100803.25
2022-08-04T09:53:43.382Z,100800.09
2022-08-04T09:56:17.752Z,100791.34
2022-08-04T09:58:56.906Z,100782.75
2022-08-04T10:01:28.158Z,100773.56
2022-08-04T10:04:02.014Z,100771.47
2022-08-04T10:06:51.914Z,100762.00
2022-08-04T10:09:33.895Z,100762.16
2022-08-04T10:12:12.027Z,100766.47
2022-08-04T10:14:52.204Z,100749.44
2022-08-04T10:17:51.904Z,100762.00
2022-08-04T10:20:44.446Z,100770.25
2022-08-04T10:23:21.531Z,100778.88
2022-08-04T10:26:08.250Z,100764.63
2022-08-04T10:28:46.972Z,100765.56
2022-08-04T10:31:23.962Z,100753.00
2022-08-04T10:33:57.613Z,100762.16
2022-08-04T10:36:31.444Z,100752.75
2022-08-04T10:39:06.536Z,100741.91
2022-08-04T10:41:39.001Z,100750.88
2022-08-04T10:44:19.116Z,100770.16
2022-08-04T10:46:55.931Z,100753.31
2022-08-04T10:49:27.039Z,100735.75
2022-08-04T10:52:04.669Z,100730.97
2022-08-04T10:54:45.250Z,100731.47
2022-08-04T10:57:18.401Z,100730.97
2022-08-04T11:00:00.580Z,100716.00
2022-08-04T11:02:40.773Z,100718.00
2022-08-04T11:05:18.757Z,100709.50
2022-08-04T11:07:52.051Z,100699.19
2022-08-04T11:10:25.467Z,100703.81
2022-08-04T11:12:58.921Z,100697.75
2022-08-04T11:15:34.481Z,100697.91
2022-08-04T11:18:16.150Z,100694.72
2022-08-04T11:20:52.415Z,100686.03
2022-08-04T11:23:27.289Z,100683.50
2022-08-04T11:26:01.678Z,100684.69
2022-08-04T11:28:40.874Z,100685.19
2022-08-04T11:31:14.503Z,100674.94
2022-08-04T11:33:50.242Z,100675.44
2022-08-04T11:36:25.820Z,100683.03
2022-08-04T11:38:59.755Z,100661.31
2022-08-04T11:41:40.768Z,100663.06
2022-08-04T11:44:12.830Z,100670.00
2022-08-04T11:46:46.654Z,100669.47
2022-08-04T11:49:57.562Z,100670.19
2022-08-04T11:52:23.682Z,100666.34
2022-08-04T11:54:54.638Z,100663.03
2022-08-04T11:57:35.320Z,100648.38
2022-08-04T12:00:10.061Z,100656.03
2022-08-04T12:03:07.454Z,100662.47
2022-08-04T12:05:47.139Z,100653.44
2022-08-04T12:08:32.522Z,100653.75
2022-08-04T12:11:18.951Z,100651.84
2022-08-04T12:13:52.161Z,100655.28
2022-08-04T12:16:27.841Z,100657.22
2022-08-04T12:19:01.645Z,100651.72
2022-08-04T12:21:38.344Z,100647.34
2022-08-04T12:24:18.394Z,100649.69
2022-08-04T12:26:53.249Z,100644.72
2022-08-04T12:29:25.503Z,100638.97
2022-08-04T12:31:58.251Z,100635.59
2022-08-04T12:34:33.993Z,100631.47
2022-08-04T12:37:20.506Z,100632.78
2022-08-04T12:40:28.533Z,100636.50
2022-08-04T12:42:59.373Z,100639.66
2022-08-04T12:45:30.048Z,100624.75
2022-08-04T12:48:01.113Z,100624.72
2022-08-04T12:50:31.079Z,100618.28
2022-08-04T12:53:04.020Z,100616.88
2022-08-04T12:55:37.157Z,100607.69
2022-08-04T12:58:15.009Z,100604.78
2022-08-04T13:00:47.666Z,100609.41
2022-08-04T13:03:19.707Z,100611.59
2022-08-04T13:05:49.780Z,100595.47
2022-08-04T13:08:23.290Z,100594.97
2022-08-04T13:10:55.758Z,100594.28
2022-08-04T13:13:28.687Z,100592.00
2022-08-04T13:15:59.984Z,100594.31
2022-08-04T13:18:32.126Z,100596.50
2022-08-04T13:21:20.414Z,100589.84
2022-08-04T13:24:10.654Z,100595.22
2022-08-04T13:26:54.427Z,100604.50
2022-08-04T13:30:00.411Z,100597.69
2022-08-04T13:32:20.469Z,100595.38
2022-08-04T13:34:52.595Z,100597.53
2022-08-04T13:37:25.345Z,100584.16
2022-08-04T13:39:58.641Z,100588.03
2022-08-04T13:42:30.076Z,100568.91
2022-08-04T13:45:02.901Z,100571.16
2022-08-04T13:47:34.959Z,100562.38
2022-08-04T13:50:19.474Z,100562.94
2022-08-04T13:52:49.773Z,100557.53
2022-08-04T13:55:27.152Z,100567.16
2022-08-04T13:58:00.480Z,100553.34
2022-08-04T14:00:42.185Z,100548.22
2022-08-04T14:03:23.509Z,100544.66
2022-08-04T14:06:18.879Z,100535.56
2022-08-04T14:08:57.105Z,100537.50
2022-08-04T14:12:09.751Z,100541.13
2022-08-04T14:14:30.020Z,100539.25
2022-08-04T14:17:19.971Z,100528.88
2022-08-04T14:19:58.908Z,100530.31
2022-08-04T14:22:34.607Z,100530.16
2022-08-04T14:25:07.425Z,100534.22
2022-08-04T14:27:47.613Z,100524.13
2022-08-04T14:30:25.057Z,100534.72
2022-08-04T14:34:02.154Z,100553.09
2022-08-04T14:36:01.640Z,100563.88
2022-08-04T14:38:56.429Z,100567.50
2022-08-04T14:41:29.560Z,100573.97
2022-08-04T14:44:03.729Z,100589.41
2022-08-04T14:46:36.629Z,100594.78
2022-08-04T14:49:11.987Z,100614.28
2022-08-04T14:51:44.754Z,100610.47
2022-08-04T14:54:18.992Z,100616.03
2022-08-04T14:56:55.698Z,100634.63
2022-08-04T14:59:28.070Z,100651.81
2022-08-04T15:02:00.039Z,100679.72
2022-08-04T15:04:32.332Z,100715.88
2022-08-04T15:07:04.494Z,100762.28
2022-08-04T15:09:35.118Z,100808.63
2022-08-04T15:12:04.939Z,100888.47
2022-08-04T15:14:38.467Z,100868.38
2022-08-04T15:17:29.433Z,100824.34
2022-08-04T15:19:59.544Z,100724.78
2022-08-04T15:22:29.292Z,100622.59
2022-08-04T15:24:58.866Z,100550.72
2022-08-04T15:27:31.978Z,100473.50
2022-08-04T15:30:07.157Z,100455.59
2022-08-04T15:32:38.681Z,100419.06
2022-08-04T15:35:12.733Z,100460.16
2022-08-04T15:37:47.898Z,100538.22
2022-08-04T15:40:27.051Z,100565.41
2022-08-04T15:43:10.744Z,100557.41
2022-08-04T15:46:37.201Z,100509.47
2022-08-04T15:48:43.876Z,100406.97
2022-08-04T15:51:17.007Z,100275.19
2022-08-04T15:54:24.684Z,100268.16
2022-08-04T15:57:02.553Z,100205.91
2022-08-04T16:00:04.113Z,100163.81
2022-08-04T16:02:46.918Z,100316.84
2022-08-04T16:05:34.474Z,100798.84
2022-08-04T16:08:12.218Z,101364.13
2022-08-04T16:10:42.718Z,101497.66
2022-08-04T16:13:15.541Z,101427.50
2022-08-04T16:15:47.280Z,101361.72
2022-08-04T16:18:26.421Z,101311.72
2022-08-04T16:20:58.130Z,101258.25
2022-08-04T16:23:55.101Z,101250.34
2022-08-04T16:26:54.546Z,101206.50
2022-08-04T16:29:43.933Z,101159.16
2022-08-04T16:32:22.114Z,101159.13
2022-08-04T16:34:59.903Z,101146.88
2022-08-04T16:37:34.919Z,101131.16
2022-08-04T16:40:38.082Z,101087.47
2022-08-04T16:43:10.817Z,101085.66
2022-08-04T16:45:48.578Z,101067.28
2022-08-04T16:48:18.831Z,101054.16
2022-08-04T16:51:04.707Z,101049.81
2022-08-04T16:53:52.213Z,101036.69
2022-08-04T16:56:33.493Z,101027.03
2022-08-04T16:59:08.590Z,101014.78
2022-08-04T17:01:38.866Z,101002.53
2022-08-04T17:04:08.913Z,100992.91
2022-08-04T17:06:43.031Z,100988.53
2022-08-04T17:09:15.172Z,100977.16
2022-08-04T17:11:45.664Z,100964.91
2022-08-04T17:14:16.036Z,100963.16
2022-08-04T17:16:46.135Z,100940.44
2022-08-04T17:19:24.141Z,100940.44
2022-08-04T17:22:04.680Z,100933.41
2022-08-04T17:24:36.483Z,100929.91
2022-08-04T17:28:20.457Z,100915.03
2022-08-04T17:29:56.412Z,100910.66
2022-08-04T17:32:26.657Z,100909.78
2022-08-04T17:34:58.515Z,100908.91
2022-08-04T17:37:39.154Z,100906.31
2022-08-04T17:44:02.979Z,100915.88
2022-08-04T17:46:29.288Z,100924.63
2022-08-04T17:49:06.457Z,100927.25
2022-08-04T17:52:02.916Z,100949.16
2022-08-04T17:54:37.122Z,100952.66
2022-08-04T17:57:19.443Z,100963.16
2022-08-04T17:59:55.981Z,100977.16
2022-08-04T18:02:33.115Z,100981.53
2022-08-04T18:05:07.314Z,100987.66
2022-08-04T18:08:38.569Z,100988.56
2022-08-04T18:10:51.828Z,100993.78
2022-08-04T18:13:24.571Z,100999.06
2022-08-04T18:16:03.449Z,101006.91
2022-08-04T18:18:33.202Z,101010.41
2022-08-04T18:21:05.026Z,101015.66
2022-08-04T18:23:34.666Z,101016.53
2022-08-04T18:26:24.085Z,101021.78
2022-08-04T18:28:53.791Z,101028.78
2022-08-04T18:31:23.299Z,101035.78
2022-08-04T18:33:57.161Z,101034.91
2022-08-04T18:36:33.378Z,101039.28
2022-08-04T18:39:12.591Z,101049.75
2022-08-04T18:42:03.947Z,101061.16
2022-08-04T18:44:52.033Z,101069.03
2022-08-04T18:47:23.478Z,101074.25
2022-08-04T18:50:59.842Z,101074.25
2022-08-04T18:52:45.717Z,101079.50
2022-08-04T18:55:55.457Z,101080.34
2022-08-04T18:58:12.764Z,101082.97
2022-08-04T19:00:46.122Z,101092.56
2022-08-04T19:03:21.922Z,101087.28
2022-08-04T19:05:53.193Z,101089.03
2022-08-04T19:08:33.304Z,101087.25
2022-08-04T19:11:35.232Z,101091.63
2022-08-04T19:13:58.888Z,101095.09
2022-08-04T19:16:29.331Z,101089.03
2022-08-04T19:19:00.449Z,101089.88
2022-08-04T19:22:00.349Z,101088.09
2022-08-04T19:24:31.868Z,101103.72
2022-08-04T19:27:06.773Z,101090.66
2022-08-04T19:29:43.224Z,101094.09
2022-08-04T19:32:15.812Z,101100.19
2022-08-04T19:34:47.620Z,101091.47
2022-08-04T19:37:57.207Z,101094.94
2022-08-04T19:40:10.225Z,101095.75
2022-08-04T19:42:40.392Z,101096.56
2022-08-04T19:45:15.463Z,101106.16
2022-08-04T19:48:21.578Z,101101.75
2022-08-04T19:50:35.932Z,101109.66
2022-08-04T19:53:19.450Z,101102.69
2022-08-04T19:55:50.385Z,101102.75
2022-08-04T19:58:25.862Z,101101.03
2022-08-04T20:00:58.449Z,101123.63
2022-08-04T20:04:09.322Z,101121.78
2022-08-04T20:06:17.518Z,101129.56
2022-08-04T20:08:48.399Z,101123.41
2022-08-04T20:11:20.625Z,101121.63
2022-08-04T20:13:54.285Z,101126.91
2022-08-04T20:16:29.341Z,101129.53
2022-08-04T20:19:03.738Z,101137.53
2022-08-04T20:21:53.780Z,101139.22
2022-08-04T20:24:40.530Z,101136.47
2022-08-04T20:27:15.389Z,101140.75
2022-08-04T20:29:48.780Z,101147.69
2022-08-04T20:32:22.651Z,101150.25
2022-08-04T20:34:52.761Z,101143.25
2022-08-04T20:37:23.277Z,101145.78
2022-08-04T20:39:57.109Z,101137.81
2022-08-04T20:42:34.039Z,101131.72
2022-08-04T20:45:04.374Z,101136.09
2022-08-04T20:47:36.974Z,101131.72
2022-08-04T20:50:10.582Z,101134.25
2022-08-04T20:52:43.105Z,101127.13
2022-08-04T20:55:13.460Z,101124.41
2022-08-04T20:57:48.542Z,101134.78
2022-08-04T21:00:29.985Z,101119.88
2022-08-04T21:03:02.507Z,101118.22
2022-08-04T21:05:32.354Z,101109.44
2022-08-04T21:08:02.121Z,101115.44
2022-08-04T21:10:31.946Z,101114.38
2022-08-04T21:13:01.479Z,101110.72
2022-08-04T21:15:58.094Z,101101.88
2022-08-04T21:18:29.263Z,101095.72
2022-08-04T21:20:59.071Z,101080.22
2022-08-04T21:23:30.149Z,101079.31
2022-08-04T21:26:04.466Z,101069.75
2022-08-04T21:28:34.666Z,101068.78
2022-08-04T21:31:11.121Z,101072.09
2022-08-04T21:33:53.848Z,101049.38
2022-08-04T21:36:27.490Z,101053.53
2022-08-04T21:38:57.268Z,101052.69
2022-08-04T21:41:27.377Z,101046.53
2022-08-04T21:43:58.901Z,101035.25
2022-08-04T21:46:30.324Z,101034.34
2022-08-04T21:49:03.891Z,101026.44
2022-08-04T21:51:58.025Z,101024.81
2022-08-04T21:54:29.091Z,101023.03
2022-08-04T21:56:58.683Z,101021.16
2022-08-04T21:59:33.581Z,101024.56
2022-08-04T22:02:14.950Z,101016.72
2022-08-04T22:04:48.520Z,101020.94
2022-08-04T22:07:18.639Z,101029.50
2022-08-04T22:10:00.116Z,101029.34
2022-08-04T22:12:30.296Z,101037.31
2022-08-04T22:15:00.121Z,101033.78
2022-08-04T22:17:35.732Z,101040.09
2022-08-04T22:20:27.851Z,101039.22
2022-08-04T22:23:06.171Z,101044.41
2022-08-04T22:25:55.701Z,101048.47
2022-08-04T22:28:28.303Z,101048.66
2022-08-04T22:30:58.891Z,101036.28
2022-08-04T22:33:54.941Z,101037.31
2022-08-04T22:36:24.956Z,101037.31
2022-08-04T22:39:01.510Z,101046.06
2022-08-04T22:41:48.919Z,101047.03
2022-08-04T22:44:25.707Z,101056.19
2022-08-04T22:47:02.093Z,101066.69
2022-08-04T22:49:33.429Z,101077.84
2022-08-04T22:52:12.319Z,101087.34
2022-08-04T22:54:48.201Z,101085.19
2022-08-04T22:57:18.536Z,101080.63
2022-08-04T22:59:55.026Z,101086.69
2022-08-04T23:02:24.677Z,101082.41
2022-08-04T23:04:54.590Z,101088.59
2022-08-04T23:07:38.047Z,101080.94
2022-08-04T23:10:16.453Z,101082.28
2022-08-04T23:12:54.168Z,101086.50
2022-08-04T23:15:23.702Z,101091.69
2022-08-04T23:17:53.589Z,101101.81
2022-08-04T23:20:32.359Z,101104.31
2022-08-04T23:23:14.733Z,101101.53
2022-08-04T23:26:07.367Z,101093.78
2022-08-04T23:28:36.379Z,101111.09
2022-08-04T23:31:05.970Z,101110.78
2022-08-04T23:33:49.343Z,101109.88
2022-08-04T23:36:29.455Z,101111.72
2022-08-04T23:39:06.226Z,101118.47
2022-08-04T23:41:51.001Z,101122.88
2022-08-04T23:44:27.220Z,101138.38
2022-08-04T23:47:04.481Z,101142.94
2022-08-04T23:49:43.709Z,101140.34
2022-08-04T23:52:27.660Z,101135.31
2022-08-04T23:55:02.836Z,101142.72
2022-08-04T23:58:05.481Z,101137.69
